Rockwood, PA

10:46 PM EDT on August 20, 2014 (GMT -0400)
Arnold Palmer Regional | Change Station
CLOSE
Current Station
Airport
Location: Latrobe,
Elevation: 1184 ft
Nearby Weather Stations

Elev 1184 ft 40.28 °N, 79.40 °W | Updated 11 minutes ago

Scattered Clouds
Scattered Clouds
72 °F
Feels Like 72 °F
N
4
Wind Variable Wind from SSW

Today
High -- | Low -- °F
--% Chance of Precip.
Yesterday
High -- | Low -- °F
Precip. -- in
6:33 AM 8:06 PM
Waning Crescent, 17% visible
Pressure 30.02 in
Visibility 10.0 miles
Clouds Few 4400 ft
Few 6000 ft
Scattered Clouds 11000 ft
Dew Point 68 °F
Humidity 88%
Rainfall 0.19 in
Snow Depth Not available.
UV 0 out of 12
Pollen 8.50 out of 12
Ozone Good
PM2.5 Good
Flu Activity Not available.
METAR KLBE 210235Z AUTO 21003KT 10SM FEW044 FEW060 SCT110 22/20 A3002 RMK A02 LTG DSNT NE P000

More Conditions Fewer Conditions

Pressure 30.02 in
Visibility 10.0 miles
Clouds Few 4400 ft
Few 6000 ft
Scattered Clouds 11000 ft
Dew Point 68 °F
Humidity 88%
Rainfall 0.19 in
Snow Depth Not available.
UV 0 out of 12
Pollen 8.50 out of 12
Ozone Good
PM2.5 Good
Flu Activity Not available.
METAR KLBE 210235Z AUTO 21003KT 10SM FEW044 FEW060 SCT110 22/20 A3002 RMK A02 LTG DSNT NE P000

More Conditions Fewer Conditions

Nowcast | as of 10:18 PM EDT on August 20, 2014

Widely scattered showers will continue to push slowly eastward across the area late this evening. A rumble of thunder and a stray downpour remains possible.

×

10-Day Weather Forecast

Almanac

Astronomy

Aug. 20, 2014 Rise Set
Actual Time 6:33 AM EDT 8:06 PM EDT
Civil Twilight 6:04 AM EDT 8:34 PM EDT
Nautical Twilight 5:30 AM EDT 9:08 PM EDT
Astronomical Twilight 4:53 AM EDT 9:45 PM EDT
Moon 2:11 AM EDT (8/20) 4:49 PM EDT (8/20)
Length of Visible Light 14h 30m
Length of Day
13h 33m
Tomorrow will be 2m 24s shorter.
Waning Crescent, 17% of the Moon is Illuminated
Today
Waning Crescent
Aug 25
New
Sep 2
First Quarter
Sep 8
Full
Sep 15
Last Quarter

Today's Extremes

State Highs State Lows

Community

WunderPhotos

Upload Photos

1,745,839 photos uploaded!

WunderBlogs® & News

By Dr. Jeff Masters
Director of Meteorology, Weather Underground
By Kari Strenfel
Meteorologist, Weather Underground
By Christopher C. Burt
Weather Historian, Weather Underground
August 20, 2014
August 20, 2014
August 20, 2014

Nearby

Air Quality

  Air Quality AQ Index Pollutant
Yesterday Moderate
PM2.5
Yesterday Moderate
OZONE
Current Good
PM2.5
Current Good
OZONE
Wednesday Moderate
PM2.5
Wednesday Good
OZONE
Thursday Good
PM2.5
Thursday Good
OZONE
Friday Moderate
PM2.5
Friday Good
OZONE

Snow Depth

Station Depth Elevation
No new snow has been reported.

Earthquake Activity

City Distance Mag. Time & Date
No recent earthquake activity has been reported nearby.
Minimum magnitude displayed is 2.5.

Coastal Water Temperatures

Place Temperature
No Stations Reporting

Nearby Weather Stations